Time;durP1;ratioP1;P1;durP2;ratioP2;P2;SDS_P1;SDS_P2;PMS_P1;PMS_P2;Temp;Humidity;BMP_temperature;BMP_pressure;BME280_temperature;BME280_humidity;BME280_pressure;Samples;Min_cycle;Max_cycle;Signal;HPM_P1;HPM_P2
2022/06/22 00:00:51;;;;;;;4.03;2.90;;;12.90;99.90;;;;;;4995547;28;20242;-70
2022/06/22 00:03:19;;;;;;;4.33;2.70;;;12.90;99.90;;;;;;5013188;28;20198;-71
2022/06/22 00:05:49;;;;;;;4.27;2.93;;;12.80;99.90;;;;;;5013128;28;20207;-71
2022/06/22 00:08:21;;;;;;;4.33;2.70;;;12.80;99.90;;;;;;5013189;28;20228;-71
2022/06/22 00:10:56;;;;;;;4.27;2.70;;;12.80;99.90;;;;;;4995083;28;20295;-71
2022/06/22 00:13:26;;;;;;;5.03;2.70;;;12.80;99.90;;;;;;4996840;28;20688;-71
2022/06/22 00:16:04;;;;;;;4.13;2.70;;;12.80;99.90;;;;;;4999229;28;20214;-71
2022/06/22 00:18:41;;;;;;;4.57;2.90;;;12.70;99.90;;;;;;4999218;28;20266;-71
2022/06/22 00:21:27;;;;;;;3.70;2.70;;;12.70;99.90;;;;;;4999096;28;20254;-72
2022/06/22 00:23:57;;;;;;;5.53;2.50;;;12.70;99.90;;;;;;5016835;28;20591;-71
2022/06/22 00:26:24;;;;;;;4.40;2.40;;;12.60;99.90;;;;;;4999154;28;20282;-71
2022/06/22 00:29:05;;;;;;;3.57;2.50;;;12.60;99.90;;;;;;4999143;28;20208;-72
2022/06/22 00:31:42;;;;;;;3.93;2.80;;;12.60;99.90;;;;;;5017217;28;20206;-72
2022/06/22 00:34:14;;;;;;;5.20;2.87;;;12.50;99.90;;;;;;4999434;28;20246;-72
2022/06/22 00:37:05;;;;;;;4.03;2.50;;;12.60;99.90;;;;;;4999095;28;20245;-73
2022/06/22 00:39:44;;;;;;;4.63;2.70;;;12.60;99.90;;;;;;4998924;28;20204;-72
2022/06/22 00:42:21;;;;;;;3.53;2.60;;;12.60;99.90;;;;;;4998642;28;20208;-71
2022/06/22 00:44:56;;;;;;;4.03;3.13;;;12.50;99.90;;;;;;4998994;28;20196;-71
2022/06/22 00:47:28;;;;;;;5.43;2.80;;;12.50;99.90;;;;;;5016597;28;20225;-71
2022/06/22 00:50:17;;;;;;;5.70;3.00;;;12.50;99.90;;;;;;5016202;28;20196;-71
2022/06/22 00:52:53;;;;;;;4.90;3.07;;;12.40;99.90;;;;;;4998565;28;20562;-72
2022/06/22 00:55:30;;;;;;;6.03;2.90;;;12.30;99.90;;;;;;4998456;28;20192;-72
2022/06/22 00:58:08;;;;;;;4.20;2.97;;;12.40;99.90;;;;;;5016213;28;20279;-71
2022/06/22 01:00:39;;;;;;;5.03;3.27;;;12.40;99.90;;;;;;4998318;28;20306;-72
2022/06/22 01:03:24;;;;;;;6.60;3.40;;;12.30;99.90;;;;;;4998951;28;20298;-72
2022/06/22 01:05:59;;;;;;;3.77;2.93;;;12.30;99.90;;;;;;4998253;28;20311;-71
2022/06/22 01:08:26;;;;;;;5.77;3.07;;;12.30;99.90;;;;;;4998481;28;20303;-73
2022/06/22 01:14:34;;;;;;;6.07;3.53;;;12.30;99.90;;;;;;4998244;28;20582;-71
2022/06/22 01:17:04;;;;;;;5.30;3.67;;;12.20;99.90;;;;;;4997853;28;20262;-71
2022/06/22 01:19:46;;;;;;;5.83;3.73;;;12.10;99.90;;;;;;4997918;28;20290;-69
2022/06/22 01:22:45;;;;;;;5.33;3.67;;;12.10;99.90;;;;;;4998029;28;20200;-71
2022/06/22 01:25:26;;;;;;;8.40;3.70;;;12.00;99.90;;;;;;4980484;28;20286;-72
2022/06/22 01:27:53;;;;;;;5.87;3.63;;;12.00;99.90;;;;;;5015518;28;20212;-71
2022/06/22 01:30:29;;;;;;;8.70;4.13;;;12.00;99.90;;;;;;4998136;28;20283;-70
2022/06/22 01:32:56;;;;;;;7.57;3.87;;;11.90;99.90;;;;;;5015684;28;20231;-72
2022/06/22 01:35:27;;;;;;;6.87;3.70;;;11.90;99.90;;;;;;5015563;28;20192;-71
2022/06/22 01:37:54;;;;;;;9.77;4.53;;;11.80;99.90;;;;;;4997889;28;20210;-71
2022/06/22 01:40:22;;;;;;;5.97;4.10;;;11.80;99.90;;;;;;4997456;28;20251;-70
2022/06/22 01:43:09;;;;;;;6.90;3.63;;;11.80;99.90;;;;;;4997660;28;20558;-70
2022/06/22 01:45:46;;;;;;;7.27;4.20;;;11.70;99.90;;;;;;5015145;28;20192;-70
2022/06/22 01:48:26;;;;;;;7.53;4.23;;;11.70;99.90;;;;;;5015556;28;20239;-70
2022/06/22 01:51:12;;;;;;;6.03;4.07;;;11.60;99.90;;;;;;4997431;28;20214;-71
2022/06/22 01:54:01;;;;;;;6.20;4.00;;;11.60;99.90;;;;;;5015236;28;20192;-70
2022/06/22 01:56:34;;;;;;;5.00;4.10;;;11.60;99.90;;;;;;5015120;28;20283;-70
2022/06/22 01:59:36;;;;;;;6.73;4.63;;;11.50;99.90;;;;;;4997834;28;20634;-70
2022/06/22 02:02:38;;;;;;;8.17;4.33;;;11.50;99.90;;;;;;4919498;29;20580;-70
2022/06/22 02:05:29;;;;;;;8.10;4.60;;;11.40;99.90;;;;;;4919248;29;20322;-71
2022/06/22 02:08:19;;;;;;;7.30;5.00;;;11.50;99.90;;;;;;4935350;29;20710;-70
2022/06/22 02:10:55;;;;;;;6.90;4.43;;;11.50;99.90;;;;;;4919243;29;20294;-70
2022/06/22 02:13:44;;;;;;;8.97;4.60;;;11.40;99.90;;;;;;4935198;29;20663;-70
2022/06/22 02:16:19;;;;;;;5.97;4.33;;;11.40;99.90;;;;;;4934861;29;20234;-71
2022/06/22 02:18:51;;;;;;;5.17;4.50;;;11.50;99.90;;;;;;4935100;29;20269;-71
2022/06/22 02:21:40;;;;;;;8.27;5.00;;;11.40;99.90;;;;;;4919224;29;20242;-71
2022/06/22 02:24:26;;;;;;;6.90;5.10;;;11.30;99.90;;;;;;4934781;29;20253;-71
2022/06/22 02:27:00;;;;;;;6.67;4.60;;;11.30;99.90;;;;;;4919263;29;20342;-71
2022/06/22 02:29:34;;;;;;;7.43;5.40;;;11.30;99.90;;;;;;4919016;29;20213;-71
2022/06/22 02:32:05;;;;;;;8.47;4.83;;;11.20;99.90;;;;;;4919321;29;20212;-71
2022/06/22 02:34:33;;;;;;;7.03;5.40;;;11.20;99.90;;;;;;4918773;29;20203;-71
2022/06/22 02:37:04;;;;;;;8.77;5.40;;;11.20;99.90;;;;;;4950937;28;20290;-71
2022/06/22 02:39:34;;;;;;;7.70;5.30;;;11.20;99.90;;;;;;4996847;28;20247;-71
2022/06/22 02:44:50;;;;;;;8.90;5.63;;;11.20;99.90;;;;;;5014244;28;20627;-71
2022/06/22 02:47:31;;;;;;;8.17;5.80;;;11.30;99.90;;;;;;4996717;28;20210;-71
2022/06/22 02:50:19;;;;;;;8.77;5.70;;;11.30;99.90;;;;;;4996619;28;20290;-70
2022/06/22 02:52:52;;;;;;;8.23;5.73;;;11.30;99.90;;;;;;4996596;28;20299;-71
2022/06/22 02:55:24;;;;;;;8.07;5.73;;;11.30;99.90;;;;;;4996280;28;20741;-70
2022/06/22 02:57:51;;;;;;;11.03;7.00;;;11.20;99.90;;;;;;4996655;28;20214;-71
2022/06/22 03:00:32;;;;;;;7.60;5.60;;;11.20;99.90;;;;;;5013938;28;20545;-71
2022/06/22 03:03:06;;;;;;;8.97;5.70;;;11.30;99.90;;;;;;5012711;28;20247;-71
2022/06/22 03:05:35;;;;;;;10.07;6.40;;;11.30;99.90;;;;;;4996032;28;20732;-71
2022/06/22 03:08:04;;;;;;;7.90;5.53;;;11.40;99.90;;;;;;4996232;28;20730;-71
2022/06/22 03:10:42;;;;;;;8.03;5.87;;;11.40;99.90;;;;;;5013680;28;20247;-71
2022/06/22 03:13:15;;;;;;;9.23;6.23;;;11.50;99.90;;;;;;5013396;28;20306;-72
2022/06/22 03:15:43;;;;;;;9.50;6.10;;;11.50;99.90;;;;;;4996042;28;20208;-71
2022/06/22 03:18:15;;;;;;;7.60;5.83;;;11.60;99.90;;;;;;4996098;28;20219;-72
2022/06/22 03:20:54;;;;;;;8.33;6.00;;;11.60;99.90;;;;;;4995719;28;20266;-72
2022/06/22 03:23:47;;;;;;;7.97;5.97;;;11.70;99.90;;;;;;4996167;28;20224;-72
2022/06/22 03:26:20;;;;;;;7.37;5.37;;;11.80;99.90;;;;;;4980796;28;20267;-71
2022/06/22 03:29:01;;;;;;;9.17;6.03;;;11.90;99.90;;;;;;4996078;28;20291;-70
2022/06/22 03:31:42;;;;;;;8.87;5.50;;;11.90;99.90;;;;;;4995738;28;20609;-72
2022/06/22 03:34:17;;;;;;;7.20;5.67;;;12.00;99.90;;;;;;4995858;28;20728;-71
2022/06/22 03:36:55;;;;;;;9.00;6.50;;;12.10;99.90;;;;;;4995631;28;20221;-71
2022/06/22 03:39:27;;;;;;;8.17;5.50;;;12.10;99.90;;;;;;5013658;28;20611;-71
2022/06/22 03:42:06;;;;;;;10.27;5.40;;;12.30;99.90;;;;;;4995492;28;20227;-72
2022/06/22 03:44:50;;;;;;;7.07;5.07;;;12.40;99.90;;;;;;4995607;28;20210;-71
2022/06/22 03:47:59;;;;;;;7.97;4.97;;;12.50;99.90;;;;;;5012771;28;20614;-71
2022/06/22 03:50:43;;;;;;;7.93;5.30;;;12.50;99.90;;;;;;4995450;28;20222;-71
2022/06/22 03:53:33;;;;;;;7.33;5.00;;;12.50;99.90;;;;;;4995881;28;20192;-71
2022/06/22 03:56:05;;;;;;;6.70;4.70;;;12.60;99.90;;;;;;4933210;29;20298;-71
2022/06/22 03:58:32;;;;;;;6.70;4.70;;;12.60;99.90;;;;;;4917594;29;20294;-71
2022/06/22 04:01:02;;;;;;;6.50;4.60;;;12.60;99.90;;;;;;4933302;29;20234;-71
2022/06/22 04:03:29;;;;;;;8.07;4.93;;;12.60;99.90;;;;;;4917724;29;20191;-71
2022/06/22 04:05:58;;;;;;;6.93;4.67;;;12.80;99.90;;;;;;4933220;29;20214;-71
2022/06/22 04:08:32;;;;;;;6.57;4.80;;;12.90;99.90;;;;;;4933423;29;20207;-71
2022/06/22 04:11:07;;;;;;;7.33;4.60;;;13.00;99.90;;;;;;4917289;29;20202;-70
2022/06/22 04:13:45;;;;;;;7.63;4.97;;;13.00;99.90;;;;;;4917514;29;20214;-71
2022/06/22 04:16:22;;;;;;;7.10;4.50;;;13.00;99.90;;;;;;4933324;29;20249;-71
2022/06/22 04:18:56;;;;;;;7.17;4.23;;;13.00;99.90;;;;;;4917448;29;20307;-71
2022/06/22 04:21:40;;;;;;;8.77;4.67;;;13.10;99.90;;;;;;4917354;29;20221;-71
2022/06/22 04:24:28;;;;;;;7.03;4.77;;;13.10;99.90;;;;;;4917241;29;20298;-71
2022/06/22 04:27:00;;;;;;;7.17;4.50;;;13.10;99.90;;;;;;4917272;29;20234;-71
2022/06/22 04:29:40;;;;;;;6.83;4.33;;;13.20;99.90;;;;;;4933342;29;20213;-71
2022/06/22 04:32:20;;;;;;;6.33;4.40;;;13.30;99.90;;;;;;4940884;28;20195;-70
2022/06/22 04:34:59;;;;;;;7.53;4.70;;;13.50;99.90;;;;;;4994889;28;20229;-71
2022/06/22 04:37:29;;;;;;;6.73;4.37;;;13.40;99.90;;;;;;4995207;28;20188;-72
2022/06/22 04:40:22;;;;;;;8.63;4.60;;;13.60;99.90;;;;;;4995204;28;20208;-72
2022/06/22 04:42:57;;;;;;;6.67;4.57;;;13.60;99.90;;;;;;4983424;28;20247;-71
2022/06/22 04:45:32;;;;;;;7.07;4.43;;;13.70;99.90;;;;;;4994874;28;20296;-71
2022/06/22 04:48:08;;;;;;;6.63;4.07;;;13.80;99.90;;;;;;4995430;28;20254;-71
2022/06/22 04:50:36;;;;;;;4.60;3.90;;;13.90;99.90;;;;;;5012656;28;20200;-72
2022/06/22 04:53:04;;;;;;;8.17;4.03;;;13.80;99.90;;;;;;5012990;28;20180;-71
2022/06/22 04:55:38;;;;;;;5.60;3.40;;;13.90;99.90;;;;;;4994951;28;20299;-72
2022/06/22 04:58:22;;;;;;;7.17;3.60;;;14.00;99.90;;;;;;4995251;28;20218;-72
2022/06/22 05:00:49;;;;;;;5.67;3.70;;;14.10;99.90;;;;;;4998530;28;20211;-70
2022/06/22 05:03:16;;;;;;;9.20;3.63;;;14.00;99.90;;;;;;5016288;28;20254;-70
2022/06/22 05:05:43;;;;;;;7.63;3.77;;;14.10;99.90;;;;;;5016004;28;20193;-70
2022/06/22 05:08:25;;;;;;;5.00;3.40;;;14.20;99.90;;;;;;4998642;28;20198;-73
2022/06/22 05:11:24;;;;;;;6.33;3.43;;;14.20;99.90;;;;;;4982381;28;20222;-73
2022/06/22 05:13:53;;;;;;;8.23;3.77;;;14.30;99.90;;;;;;4994665;28;20324;-71
2022/06/22 05:16:31;;;;;;;5.50;3.50;;;14.30;99.90;;;;;;4998571;28;20202;-72
2022/06/22 05:19:00;;;;;;;7.60;3.87;;;14.40;99.90;;;;;;4998394;28;20207;-72
2022/06/22 05:21:39;;;;;;;8.73;3.60;;;14.50;99.90;;;;;;4998457;28;20219;-72
2022/06/22 05:24:22;;;;;;;6.30;3.33;;;14.60;99.90;;;;;;4998291;28;20188;-72
2022/06/22 05:26:52;;;;;;;6.73;3.07;;;14.80;99.90;;;;;;4998236;28;20199;-72
2022/06/22 05:29:27;;;;;;;7.93;3.63;;;14.90;99.90;;;;;;5015821;28;20676;-73
2022/06/22 05:31:58;;;;;;;7.23;3.47;;;14.90;99.90;;;;;;4998113;28;20283;-73
2022/06/22 05:34:36;;;;;;;7.13;3.30;;;15.00;99.90;;;;;;4997846;28;20199;-73
2022/06/22 05:37:23;;;;;;;6.60;3.40;;;15.00;99.90;;;;;;4998009;28;20230;-72
2022/06/22 05:39:51;;;;;;;6.37;3.40;;;15.00;99.90;;;;;;4997821;28;20646;-73
2022/06/22 05:42:18;;;;;;;7.87;3.40;;;15.10;99.90;;;;;;5015350;28;20306;-72
2022/06/22 05:44:46;;;;;;;7.43;3.20;;;15.10;99.90;;;;;;4997679;28;20700;-70
2022/06/22 05:47:33;;;;;;;7.73;3.23;;;15.30;99.90;;;;;;4997846;28;20199;-70
2022/06/22 05:50:21;;;;;;;7.87;3.20;;;15.30;99.90;;;;;;4997804;28;20287;-71
2022/06/22 05:52:55;;;;;;;7.10;3.13;;;15.30;99.90;;;;;;4997563;28;20204;-71
2022/06/22 05:55:57;;;;;;;8.77;3.23;;;15.40;99.90;;;;;;4997505;28;20291;-74
2022/06/22 05:58:34;;;;;;;6.13;3.50;;;15.60;99.90;;;;;;4935757;29;20329;-72
2022/06/22 06:01:05;;;;;;;6.97;3.27;;;15.60;99.90;;;;;;4919549;29;20565;-72
2022/06/22 06:03:58;;;;;;;7.40;3.30;;;15.70;99.90;;;;;;4935726;29;20207;-73
2022/06/22 06:06:35;;;;;;;7.70;3.37;;;15.80;99.90;;;;;;4935465;29;20263;-69
2022/06/22 06:09:06;;;;;;;7.10;3.50;;;15.80;99.90;;;;;;4919532;29;20712;-73
2022/06/22 06:11:40;;;;;;;6.93;3.43;;;15.80;99.90;;;;;;4918555;29;20238;-75
2022/06/22 06:14:24;;;;;;;8.70;3.40;;;16.00;99.90;;;;;;4919175;29;20697;-73
2022/06/22 06:16:54;;;;;;;8.80;3.30;;;16.10;99.90;;;;;;4919536;29;20209;-70
2022/06/22 06:19:25;;;;;;;8.77;3.37;;;16.20;99.90;;;;;;4935376;29;20195;-73
2022/06/22 06:21:57;;;;;;;6.97;3.13;;;16.20;99.90;;;;;;4935057;29;20233;-72
2022/06/22 06:24:36;;;;;;;7.77;3.37;;;16.30;99.90;;;;;;4919256;29;20203;-67
2022/06/22 06:30:49;;;;;;;7.27;3.10;;;16.40;99.90;;;;;;4934913;29;20653;-71
2022/06/22 06:33:35;;;;;;;6.73;3.13;;;16.40;99.90;;;;;;4934955;29;20218;-73
2022/06/22 06:36:17;;;;;;;7.13;2.97;;;16.40;99.90;;;;;;4982067;28;20302;-72
2022/06/22 06:38:56;;;;;;;6.00;3.00;;;16.50;99.90;;;;;;4996596;28;20191;-73
2022/06/22 06:41:43;;;;;;;9.30;2.60;;;16.50;99.90;;;;;;4996751;28;20266;-75
2022/06/22 06:44:20;;;;;;;7.97;3.10;;;16.50;99.90;;;;;;4996958;28;20200;-72
2022/06/22 06:46:53;;;;;;;5.37;2.80;;;16.60;99.90;;;;;;4996721;28;20290;-72
2022/06/22 06:50:03;;;;;;;6.73;3.00;;;16.80;99.90;;;;;;4996648;28;20200;-73
2022/06/22 06:52:48;;;;;;;4.23;2.40;;;16.90;99.90;;;;;;4996910;28;20226;-72
2022/06/22 06:55:27;;;;;;;6.60;2.90;;;17.10;99.90;;;;;;5013930;28;20192;-73
2022/06/22 06:58:16;;;;;;;7.17;3.03;;;17.10;99.90;;;;;;4996524;28;20233;-72
2022/06/22 07:00:44;;;;;;;7.73;3.83;;;17.20;99.90;;;;;;4996448;28;20319;-77
2022/06/22 07:03:22;;;;;;;10.17;3.00;;;17.30;99.90;;;;;;5014235;28;20262;-73
2022/06/22 07:05:53;;;;;;;5.57;2.50;;;17.50;99.90;;;;;;4996642;28;20195;-77
2022/06/22 07:08:28;;;;;;;7.00;3.10;;;17.80;99.90;;;;;;4996582;28;20599;-72
2022/06/22 07:11:32;;;;;;;8.57;2.90;;;17.80;99.90;;;;;;4996351;28;20203;-75
2022/06/22 07:14:13;;;;;;;6.63;2.60;;;17.80;99.90;;;;;;4995884;28;20224;-75
2022/06/22 07:16:41;;;;;;;5.97;2.57;;;17.90;99.90;;;;;;4980697;28;20195;-75
2022/06/22 07:19:26;;;;;;;8.13;3.00;;;18.10;99.90;;;;;;5013644;28;20275;-74
2022/06/22 07:22:07;;;;;;;5.63;2.50;;;18.30;99.90;;;;;;4995526;28;20220;-75
2022/06/22 07:24:38;;;;;;;3.93;2.13;;;18.20;99.90;;;;;;4995670;28;20232;-69
2022/06/22 07:27:33;;;;;;;6.20;2.60;;;18.40;99.90;;;;;;4995914;28;20265;-71
2022/06/22 07:30:06;;;;;;;8.03;2.47;;;18.60;99.90;;;;;;4995706;28;20243;-76
2022/06/22 07:33:02;;;;;;;5.43;3.03;;;18.70;99.90;;;;;;4996241;28;20200;-79
2022/06/22 07:36:04;;;;;;;6.03;2.43;;;18.80;99.90;;;;;;4995780;28;20310;-79
2022/06/22 07:38:46;;;;;;;6.03;2.87;;;18.80;99.90;;;;;;4918090;29;20202;-79
2022/06/22 07:41:19;;;;;;;7.33;2.70;;;18.80;99.90;;;;;;4917865;29;20211;-79
2022/06/22 07:43:51;;;;;;;7.93;2.70;;;18.50;99.90;;;;;;4933468;29;20206;-78
2022/06/22 07:46:27;;;;;;;5.40;2.90;;;18.60;99.90;;;;;;4933625;29;20221;-71
2022/06/22 07:49:04;;;;;;;8.10;2.60;;;18.50;99.90;;;;;;4933599;29;20328;-73
2022/06/22 07:51:32;;;;;;;8.27;2.40;;;18.70;99.90;;;;;;4933727;29;20309;-73
2022/06/22 07:54:09;;;;;;;5.37;2.73;;;18.90;99.90;;;;;;4933340;29;20281;-79
2022/06/22 07:56:47;;;;;;;5.80;2.70;;;18.90;99.90;;;;;;4931444;29;20744;-77
2022/06/22 07:59:25;;;;;;;5.33;2.30;;;19.10;99.90;;;;;;4929283;29;20282;-75
2022/06/22 08:01:58;;;;;;;6.20;2.50;;;19.00;99.90;;;;;;4915891;29;20217;-74
2022/06/22 08:04:48;;;;;;;4.60;2.63;;;19.10;99.90;;;;;;4913165;29;20196;-78
2022/06/22 08:07:24;;;;;;;5.43;2.43;;;19.20;99.90;;;;;;4930955;29;20199;-78
2022/06/22 08:10:10;;;;;;;4.33;2.50;;;19.20;99.90;;;;;;4917762;29;20202;-78
2022/06/22 08:12:51;;;;;;;5.27;2.40;;;19.30;99.90;;;;;;4917364;29;20359;-78
2022/06/22 08:15:22;;;;;;;5.57;2.47;;;19.50;99.90;;;;;;4956345;28;20223;-77
2022/06/22 08:17:52;;;;;;;4.23;1.97;;;19.70;99.90;;;;;;5013373;28;20279;-77
2022/06/22 08:20:24;;;;;;;3.50;2.07;;;19.60;99.90;;;;;;5014089;28;20254;-76
2022/06/22 08:22:53;;;;;;;5.33;2.00;;;19.50;99.90;;;;;;4979742;28;20228;-78
2022/06/22 08:25:47;;;;;;;3.47;1.70;;;19.70;99.90;;;;;;4995106;28;20220;-75
2022/06/22 08:28:19;;;;;;;3.60;1.80;;;20.40;99.90;;;;;;5013185;28;20195;-78
2022/06/22 08:30:49;;;;;;;4.60;2.03;;;21.30;99.90;;;;;;5013391;28;20227;-75
2022/06/22 08:33:36;;;;;;;5.23;2.30;;;22.10;99.90;;;;;;4995805;28;20304;-75
2022/06/22 08:36:19;;;;;;;6.53;2.50;;;21.70;99.90;;;;;;4999537;28;20282;-77
2022/06/22 08:39:01;;;;;;;4.53;2.20;;;21.50;99.90;;;;;;4999547;28;20196;-77
2022/06/22 08:41:52;;;;;;;5.10;2.20;;;21.30;99.90;;;;;;4999234;28;20709;-76
2022/06/22 08:44:40;;;;;;;3.05;1.92;;;22.30;99.90;;;;;;5016512;28;20196;-70
2022/06/22 08:47:07;;;;;;;3.63;1.90;;;23.10;99.90;;;;;;4998964;28;20601;-70
2022/06/22 08:49:49;;;;;;;4.43;2.10;;;23.50;99.90;;;;;;4999047;28;20311;-72
2022/06/22 08:52:44;;;;;;;5.70;1.90;;;24.10;99.90;;;;;;4999025;28;20206;-70
2022/06/22 08:56:07;;;;;;;3.40;1.75;;;24.10;99.90;;;;;;4998402;28;20207;-74
2022/06/22 08:58:59;;;;;;;3.05;1.75;;;25.20;99.90;;;;;;4958764;28;20202;-73
2022/06/22 09:01:43;;;;;;;5.20;2.10;;;24.90;99.90;;;;;;4975530;28;20548;-72
2022/06/22 09:04:41;;;;;;;4.90;2.20;;;24.20;99.90;;;;;;4976360;28;20562;-74
2022/06/22 09:08:16;;;;;;;3.38;2.05;;;23.90;99.90;;;;;;4975145;28;20206;-74
2022/06/22 09:16:09;;;;;;;7.38;2.00;;;24.30;99.90;;;;;;4946248;29;20194;-73
2022/06/22 09:18:45;;;;;;;5.10;2.10;;;24.50;99.90;;;;;;4955658;28;20298;-74
2022/06/22 09:21:31;;;;;;;3.67;2.08;;;25.20;99.90;;;;;;4955554;29;20236;-74
2022/06/22 09:24:32;;;;;;;3.85;1.90;;;25.60;99.90;;;;;;4955358;29;20683;-74
2022/06/22 09:27:16;;;;;;;3.65;1.80;;;26.20;99.90;;;;;;4939313;28;20204;-72
2022/06/22 09:30:03;;;;;;;4.22;2.05;;;25.10;99.90;;;;;;4939537;29;20198;-71
2022/06/22 09:32:51;;;;;;;3.67;1.80;;;25.00;99.90;;;;;;4939386;29;20206;-72
2022/06/22 09:35:37;;;;;;;3.08;2.20;;;23.70;99.90;;;;;;4951348;28;20205;-72
2022/06/22 09:38:34;;;;;;;3.17;2.00;;;24.00;99.90;;;;;;4974483;28;20714;-74
2022/06/22 09:41:06;;;;;;;3.20;1.83;;;24.10;99.90;;;;;;4977468;28;20196;-72
2022/06/22 09:43:33;;;;;;;2.70;1.80;;;24.00;99.90;;;;;;4997677;28;20220;-74
2022/06/22 09:46:28;;;;;;;4.10;2.22;;;23.90;99.90;;;;;;5014658;28;20181;-73
2022/06/22 09:49:07;;;;;;;3.78;2.25;;;24.30;99.90;;;;;;4998029;28;20192;-73
2022/06/22 09:51:46;;;;;;;3.75;2.03;;;24.60;99.90;;;;;;4997701;28;20224;-74
2022/06/22 09:57:42;;;;;;;5.22;2.10;;;25.60;99.90;;;;;;4997670;28;20672;-77
2022/06/22 10:00:23;;;;;;;5.93;2.10;;;25.70;98.70;;;;;;5015057;28;20196;-75
2022/06/22 10:03:28;;;;;;;3.30;1.90;;;25.60;98.40;;;;;;4997696;28;20257;-63
2022/06/22 10:06:23;;;;;;;5.93;2.10;;;25.50;99.70;;;;;;4994243;28;20641;-78
2022/06/22 10:08:57;;;;;;;3.88;2.15;;;25.10;99.90;;;;;;4997479;28;20287;-78
2022/06/22 10:11:29;;;;;;;5.07;2.28;;;24.90;99.90;;;;;;4996481;28;20278;-77
2022/06/22 10:14:15;;;;;;;5.25;2.35;;;24.50;99.90;;;;;;4996480;28;20223;-75
2022/06/22 10:17:13;;;;;;;4.93;2.13;;;23.30;99.90;;;;;;4996098;28;20624;-81
2022/06/22 10:20:14;;;;;;;3.38;1.88;;;23.50;99.90;;;;;;4998278;28;20660;-81
2022/06/22 10:23:04;;;;;;;4.68;2.00;;;24.10;99.90;;;;;;4980737;28;20580;-76
2022/06/22 10:25:52;;;;;;;3.63;2.42;;;23.90;99.90;;;;;;4996873;28;20295;-71
2022/06/22 10:28:28;;;;;;;6.57;2.20;;;23.70;99.90;;;;;;5014179;28;20206;-73
2022/06/22 10:31:17;;;;;;;4.13;1.80;;;24.30;99.90;;;;;;5013533;28;20184;-76
2022/06/22 10:33:58;;;;;;;5.55;2.40;;;24.60;99.90;;;;;;4996051;28;20287;-76
2022/06/22 10:37:06;;;;;;;4.25;1.88;;;25.40;99.90;;;;;;5014103;28;20204;-80
2022/06/22 10:39:52;;;;;;;3.75;2.05;;;25.40;99.90;;;;;;4996089;28;20200;-74
2022/06/22 10:45:28;;;;;;;4.50;2.40;;;24.70;99.50;;;;;;5014377;28;20215;-72
2022/06/22 10:48:27;;;;;;;4.60;2.00;;;25.00;99.90;;;;;;4995630;28;20211;-70
2022/06/22 10:51:31;;;;;;;6.43;1.92;;;25.40;98.00;;;;;;4995263;28;20295;-70
2022/06/22 10:54:04;;;;;;;2.92;2.10;;;25.70;98.60;;;;;;5014067;28;20254;-71
2022/06/22 10:57:05;;;;;;;3.92;2.13;;;25.40;98.20;;;;;;4995370;28;20204;-74
2022/06/22 10:59:53;;;;;;;3.90;2.10;;;25.80;99.20;;;;;;4995502;28;20196;-71
2022/06/22 11:02:58;;;;;;;3.53;1.90;;;25.50;96.10;;;;;;4995044;28;20235;-70
2022/06/22 11:05:31;;;;;;;2.28;1.83;;;25.40;97.60;;;;;;5012030;28;20563;-71
2022/06/22 11:08:24;;;;;;;4.22;2.17;;;25.50;95.80;;;;;;5012886;28;20199;-70
2022/06/22 11:11:03;;;;;;;3.75;1.58;;;25.50;94.90;;;;;;4995484;28;20227;-71
2022/06/22 11:13:53;;;;;;;6.07;2.03;;;25.90;93.40;;;;;;4995384;28;20259;-70
2022/06/22 11:16:50;;;;;;;2.97;1.60;;;26.70;93.10;;;;;;5016375;28;20199;-71
2022/06/22 11:19:20;;;;;;;5.82;2.15;;;27.30;94.20;;;;;;5001759;28;20227;-75
2022/06/22 11:22:03;;;;;;;4.25;1.77;;;26.90;91.10;;;;;;5011371;28;20801;-71
2022/06/22 11:24:51;;;;;;;3.45;1.88;;;27.30;91.40;;;;;;4988507;28;20218;-73
2022/06/22 11:30:59;;;;;;;3.95;1.80;;;28.30;89.50;;;;;;5021481;28;20239;-71
2022/06/22 11:33:41;;;;;;;3.55;1.70;;;28.80;91.70;;;;;;4995366;28;20216;-71
2022/06/22 11:36:39;;;;;;;2.10;1.58;;;28.90;89.90;;;;;;5012808;28;20203;-70
2022/06/22 11:39:46;;;;;;;5.43;1.95;;;26.90;80.90;;;;;;5012841;28;20192;-73
2022/06/22 11:42:47;;;;;;;4.30;1.70;;;26.90;85.10;;;;;;4979256;28;20292;-74
2022/06/22 11:45:51;;;;;;;3.25;1.77;;;27.50;83.90;;;;;;4993692;28;20206;-77
2022/06/22 11:48:44;;;;;;;3.05;1.60;;;28.00;81.00;;;;;;5010522;28;20268;-73
2022/06/22 11:51:33;;;;;;;2.78;1.55;;;28.50;85.90;;;;;;5004781;28;20208;-74
2022/06/22 11:54:23;;;;;;;3.22;1.70;;;29.20;77.30;;;;;;4997967;28;20196;-71
2022/06/22 11:56:56;;;;;;;3.88;1.88;;;29.70;79.60;;;;;;5011693;28;20199;-77
2022/06/22 11:59:41;;;;;;;1.92;1.63;;;29.90;80.50;;;;;;5014036;28;20694;-74
2022/06/22 12:02:29;;;;;;;5.78;1.60;;;30.10;75.30;;;;;;4976401;28;20628;-76
2022/06/22 12:05:09;;;;;;;4.60;2.13;;;30.10;73.50;;;;;;4978221;28;20201;-75
2022/06/22 12:07:59;;;;;;;3.28;1.95;;;30.10;71.00;;;;;;5010868;28;20196;-76
2022/06/22 12:10:44;;;;;;;3.67;1.75;;;29.30;68.70;;;;;;4992936;28;20193;-75
2022/06/22 12:13:11;;;;;;;3.88;1.80;;;28.70;69.30;;;;;;4989913;28;20240;-72
2022/06/22 12:16:17;;;;;;;2.33;1.50;;;28.90;74.40;;;;;;5011115;28;20231;-78
2022/06/22 12:19:04;;;;;;;3.28;1.70;;;29.60;75.30;;;;;;4935566;29;20210;-72
2022/06/22 12:21:52;;;;;;;2.42;1.70;;;29.90;68.30;;;;;;4936415;29;20202;-75
2022/06/22 12:24:46;;;;;;;5.10;1.40;;;30.50;68.00;;;;;;4933287;29;20268;-75
2022/06/22 12:27:21;;;;;;;2.60;1.63;;;30.80;68.20;;;;;;4918672;29;20671;-75
2022/06/22 12:30:05;;;;;;;2.17;1.60;;;30.60;66.00;;;;;;4917832;29;20207;-72
2022/06/22 12:32:59;;;;;;;2.97;1.50;;;30.50;65.10;;;;;;4933479;29;20206;-73
2022/06/22 12:35:58;;;;;;;2.67;1.70;;;30.30;64.30;;;;;;4933437;29;20203;-74
2022/06/22 12:38:37;;;;;;;2.65;1.90;;;30.90;62.80;;;;;;4933595;29;20290;-74
2022/06/22 12:41:45;;;;;;;3.72;1.80;;;30.90;64.20;;;;;;4917614;29;20187;-73
2022/06/22 12:44:47;;;;;;;2.92;1.90;;;30.30;63.90;;;;;;4935213;29;20310;-74
2022/06/22 12:48:18;;;;;;;3.03;1.70;;;29.20;67.20;;;;;;4933116;29;20209;-72
2022/06/22 12:51:00;;;;;;;2.30;1.73;;;28.60;64.50;;;;;;4894720;29;20310;-72
2022/06/22 12:53:30;;;;;;;3.13;1.95;;;28.70;67.30;;;;;;4895079;29;20662;-73
2022/06/22 12:56:23;;;;;;;3.85;2.00;;;29.00;66.20;;;;;;4933247;29;20218;-77
2022/06/22 12:59:05;;;;;;;2.42;1.70;;;29.90;68.60;;;;;;4975947;28;20203;-73
2022/06/22 13:01:33;;;;;;;5.50;1.63;;;30.50;62.40;;;;;;4954731;28;20202;-75
2022/06/22 13:04:23;;;;;;;3.15;1.60;;;29.80;61.50;;;;;;4975101;28;20256;-72
2022/06/22 13:07:11;;;;;;;2.13;1.45;;;29.70;63.90;;;;;;4990940;28;20193;-73
2022/06/22 13:09:39;;;;;;;3.58;1.70;;;29.50;62.80;;;;;;4961347;28;20190;-76
2022/06/22 13:12:33;;;;;;;3.15;1.70;;;30.10;65.40;;;;;;4939283;28;20273;-74
2022/06/22 13:15:06;;;;;;;2.75;1.52;;;30.50;61.80;;;;;;4951870;29;20207;-74
2022/06/22 13:17:39;;;;;;;3.08;1.85;;;30.80;62.00;;;;;;4935930;29;20695;-74
2022/06/22 13:20:39;;;;;;;3.13;1.70;;;30.50;60.70;;;;;;4951685;28;20249;-74
2022/06/22 13:23:30;;;;;;;5.28;1.73;;;30.60;62.40;;;;;;4958048;28;20752;-76
2022/06/22 13:26:13;;;;;;;2.50;1.75;;;31.00;61.50;;;;;;4983769;28;20207;-76
2022/06/22 13:28:51;;;;;;;1.95;1.70;;;30.80;58.90;;;;;;4998039;28;20291;-75
2022/06/22 13:31:31;;;;;;;3.58;2.00;;;30.40;58.60;;;;;;4998261;28;20235;-74
2022/06/22 13:34:15;;;;;;;4.78;1.80;;;30.40;59.90;;;;;;4997585;28;20295;-72
2022/06/22 13:36:51;;;;;;;4.90;1.98;;;30.20;59.40;;;;;;5008523;28;20208;-72
2022/06/22 13:39:40;;;;;;;2.33;1.70;;;30.00;61.90;;;;;;5014049;28;20199;-71
2022/06/22 13:42:10;;;;;;;2.58;1.80;;;30.40;61.20;;;;;;5027096;28;20212;-73
2022/06/22 13:44:37;;;;;;;2.95;1.83;;;31.30;62.70;;;;;;4980693;28;20235;-72
2022/06/22 13:47:38;;;;;;;2.65;1.60;;;31.50;58.40;;;;;;5015165;28;20554;-72
2022/06/22 13:50:51;;;;;;;4.07;1.58;;;31.50;57.00;;;;;;4981397;28;20258;-71
2022/06/22 13:53:43;;;;;;;3.33;1.80;;;31.90;57.90;;;;;;4997161;28;20211;-71
2022/06/22 13:56:37;;;;;;;2.17;1.70;;;31.90;56.10;;;;;;5013847;28;20192;-72
2022/06/22 13:59:21;;;;;;;2.53;1.65;;;30.70;58.80;;;;;;5014080;28;20204;-74
2022/06/22 14:02:00;;;;;;;4.68;1.73;;;31.00;58.00;;;;;;4995251;28;20184;-72
2022/06/22 14:04:33;;;;;;;5.68;1.60;;;30.80;57.00;;;;;;4997470;28;20235;-72
2022/06/22 14:07:26;;;;;;;1.73;1.52;;;30.70;58.70;;;;;;4985381;28;20204;-71
2022/06/22 14:10:34;;;;;;;2.53;1.63;;;30.70;59.10;;;;;;4974866;28;20208;-74
2022/06/22 14:13:32;;;;;;;3.00;1.50;;;30.80;59.20;;;;;;4968273;28;20572;-72
2022/06/22 14:16:08;;;;;;;1.83;1.60;;;30.70;58.80;;;;;;4997286;28;20192;-74
2022/06/22 14:19:02;;;;;;;2.63;1.60;;;30.90;58.50;;;;;;5014194;28;20197;-72
2022/06/22 14:21:38;;;;;;;5.82;2.08;;;31.00;56.60;;;;;;5000793;28;20196;-73
2022/06/22 14:24:10;;;;;;;3.22;1.60;;;30.40;59.10;;;;;;4995656;28;20653;-74